createdAt,value
2023-01-09T00:02:14.208Z,85.19
2023-01-09T00:04:41.875Z,84.05
2023-01-09T00:07:10.501Z,84.70
2023-01-09T00:09:37.661Z,82.84
2023-01-09T00:12:05.875Z,81.97
2023-01-09T00:14:33.526Z,82.08
2023-01-09T00:17:01.114Z,81.77
2023-01-09T00:19:28.797Z,81.41
2023-01-09T00:21:55.997Z,80.78
2023-01-09T00:24:24.643Z,81.70
2023-01-09T00:26:51.458Z,82.53
2023-01-09T00:29:18.820Z,82.23
2023-01-09T00:31:46.052Z,82.46
2023-01-09T00:34:13.539Z,82.85
2023-01-09T00:36:41.002Z,83.09
2023-01-09T00:39:07.707Z,83.62
2023-01-09T00:41:41.167Z,84.19
2023-01-09T00:44:12.509Z,83.74
2023-01-09T00:46:43.475Z,84.48
2023-01-09T00:49:13.431Z,85.06
2023-01-09T00:51:42.501Z,85.11
2023-01-09T00:54:11.712Z,84.34
2023-01-09T00:56:40.449Z,85.17
2023-01-09T00:59:08.213Z,84.84
2023-01-09T01:01:35.565Z,84.99
2023-01-09T01:04:02.352Z,85.19
2023-01-09T01:06:29.473Z,85.38
2023-01-09T01:08:56.765Z,85.58
2023-01-09T01:11:24.588Z,86.17
2023-01-09T01:13:53.845Z,86.75
2023-01-09T01:16:21.208Z,86.08
2023-01-09T01:18:48.392Z,86.08
2023-01-09T01:21:15.684Z,85.82
2023-01-09T01:23:43.715Z,85.80
2023-01-09T01:26:13.511Z,85.91
2023-01-09T01:28:41.254Z,85.94
2023-01-09T01:31:16.540Z,86.26
2023-01-09T01:33:43.830Z,86.17
2023-01-09T01:36:11.979Z,85.86
2023-01-09T01:38:39.513Z,85.56
2023-01-09T01:41:06.748Z,84.91
2023-01-09T01:43:54.779Z,84.66
2023-01-09T01:46:23.581Z,84.61
2023-01-09T01:48:56.553Z,83.90
2023-01-09T01:51:25.571Z,83.32
2023-01-09T01:53:58.188Z,83.00
2023-01-09T01:56:28.815Z,82.43
2023-01-09T01:58:59.145Z,80.84
2023-01-09T02:01:29.814Z,79.66
2023-01-09T02:03:59.692Z,79.48
2023-01-09T02:06:27.423Z,80.07
2023-01-09T02:08:55.525Z,79.86
2023-01-09T02:11:22.958Z,79.66
2023-01-09T02:13:50.692Z,80.40
2023-01-09T02:16:36.132Z,79.96
2023-01-09T02:19:20.209Z,79.17
2023-01-09T02:21:59.470Z,80.13
2023-01-09T02:24:45.968Z,80.05
2023-01-09T02:27:37.169Z,80.32
2023-01-09T02:30:25.923Z,80.38
2023-01-09T02:33:05.142Z,81.18
2023-01-09T02:35:55.917Z,81.77
2023-01-09T02:38:29.659Z,81.62
2023-01-09T02:41:04.644Z,81.79
2023-01-09T02:43:32.835Z,81.61
2023-01-09T02:46:02.127Z,81.43
2023-01-09T02:48:30.568Z,81.15
2023-01-09T02:51:10.567Z,81.01
2023-01-09T02:53:53.816Z,81.79
2023-01-09T02:56:40.301Z,82.23
2023-01-09T02:59:21.725Z,82.82
2023-01-09T03:02:04.212Z,83.35
2023-01-09T03:04:43.535Z,83.05
2023-01-09T03:07:18.428Z,82.82
2023-01-09T03:09:51.177Z,83.69
2023-01-09T03:12:23.080Z,82.96
2023-01-09T03:14:55.771Z,83.80
2023-01-09T03:17:29.445Z,82.92
2023-01-09T03:19:57.929Z,83.25
2023-01-09T03:22:25.582Z,83.34
2023-01-09T03:24:53.234Z,83.72
2023-01-09T03:27:20.872Z,83.48
2023-01-09T03:29:48.140Z,83.39
2023-01-09T03:32:15.824Z,83.59
2023-01-09T03:34:44.453Z,83.24
2023-01-09T03:37:11.696Z,82.48
2023-01-09T03:45:34.504Z,87.81
2023-01-09T03:48:02.097Z,85.52
2023-01-09T03:50:29.325Z,85.49
2023-01-09T03:52:56.699Z,85.57
2023-01-09T03:55:24.437Z,85.67
2023-01-09T03:57:51.871Z,85.79
2023-01-09T04:00:21.200Z,85.82
2023-01-09T04:02:48.689Z,85.50
2023-01-09T04:05:16.166Z,86.49
2023-01-09T04:07:43.536Z,86.60
2023-01-09T04:10:11.988Z,86.81
2023-01-09T04:12:38.991Z,86.85
2023-01-09T04:15:07.359Z,87.54
2023-01-09T04:17:36.031Z,88.40
2023-01-09T04:20:03.751Z,88.44
2023-01-09T04:22:31.007Z,88.44
2023-01-09T04:24:58.296Z,88.48
2023-01-09T04:27:25.776Z,88.88
2023-01-09T04:29:52.902Z,88.46
2023-01-09T04:32:20.257Z,88.37
2023-01-09T04:34:49.126Z,88.37
2023-01-09T04:37:16.628Z,88.57
2023-01-09T04:39:43.867Z,88.97
2023-01-09T04:42:11.803Z,88.47
2023-01-09T04:44:39.295Z,88.17
2023-01-09T04:47:06.681Z,88.49
2023-01-09T04:49:34.345Z,87.35
2023-01-09T04:52:03.083Z,87.74
2023-01-09T04:54:30.391Z,87.04
2023-01-09T04:56:57.847Z,87.30
2023-01-09T04:59:25.202Z,86.58
2023-01-09T05:01:52.779Z,85.66
2023-01-09T05:04:19.629Z,85.12
2023-01-09T05:06:46.400Z,84.52
2023-01-09T05:09:15.180Z,83.51
2023-01-09T05:11:42.660Z,82.68
2023-01-09T05:14:10.047Z,81.89
2023-01-09T05:16:37.491Z,81.62
2023-01-09T05:19:04.926Z,81.17
2023-01-09T05:21:32.199Z,81.35
2023-01-09T05:23:58.909Z,81.58
2023-01-09T05:26:27.812Z,81.97
2023-01-09T05:28:55.644Z,82.26
2023-01-09T05:31:23.707Z,81.57
2023-01-09T05:33:51.090Z,80.97
2023-01-09T05:36:18.600Z,80.73
2023-01-09T05:38:45.382Z,80.70
2023-01-09T05:41:12.639Z,79.79
2023-01-09T05:43:41.450Z,79.56
2023-01-09T05:46:08.749Z,78.75
2023-01-09T05:48:36.335Z,78.06
2023-01-09T05:51:04.817Z,78.37
2023-01-09T05:53:31.972Z,78.14
2023-01-09T05:55:59.566Z,78.67
2023-01-09T05:58:26.819Z,78.56
2023-01-09T06:00:55.520Z,79.37
2023-01-09T06:03:22.994Z,79.06
2023-01-09T06:05:50.280Z,81.03
2023-01-09T06:08:17.667Z,79.95
2023-01-09T06:10:46.577Z,80.69
2023-01-09T06:13:13.910Z,80.58
2023-01-09T06:15:41.357Z,80.75
2023-01-09T06:18:10.373Z,81.55
2023-01-09T06:20:37.683Z,81.81
2023-01-09T06:23:05.131Z,82.09
2023-01-09T06:25:32.493Z,82.26
2023-01-09T06:28:02.932Z,83.74
2023-01-09T06:30:30.095Z,86.01
2023-01-09T06:32:57.367Z,87.98
2023-01-09T06:35:25.973Z,88.85
2023-01-09T06:37:53.177Z,88.04
2023-01-09T06:40:20.662Z,87.85
2023-01-09T06:42:48.808Z,90.64
2023-01-09T06:45:16.414Z,91.65
2023-01-09T06:47:43.900Z,95.72
2023-01-09T06:50:12.018Z,92.62
2023-01-09T06:52:40.591Z,92.51
2023-01-09T06:55:09.334Z,91.95
2023-01-09T06:57:36.618Z,92.34
2023-01-09T07:00:05.395Z,92.30
2023-01-09T07:02:32.706Z,91.01
2023-01-09T07:05:00.027Z,91.62
2023-01-09T07:07:27.451Z,92.02
2023-01-09T07:09:56.311Z,94.77
2023-01-09T07:12:23.608Z,95.28
2023-01-09T07:14:50.839Z,95.35
2023-01-09T07:17:18.327Z,97.61
2023-01-09T07:19:45.566Z,98.59
2023-01-09T07:22:13.416Z,99.01
2023-01-09T07:24:40.852Z,98.89
2023-01-09T07:27:09.990Z,97.15
2023-01-09T07:29:37.189Z,97.14
2023-01-09T07:32:05.407Z,98.74
2023-01-09T07:34:32.827Z,98.60
2023-01-09T07:37:00.042Z,97.65
2023-01-09T07:39:28.002Z,100.00
2023-01-09T07:41:55.406Z,99.24
2023-01-09T07:44:24.005Z,100.00
2023-01-09T07:46:51.542Z,100.00
2023-01-09T07:49:18.710Z,99.94
2023-01-09T07:51:46.122Z,99.09
2023-01-09T07:54:13.531Z,98.30
2023-01-09T07:56:41.193Z,97.17
2023-01-09T07:59:07.996Z,96.97
2023-01-09T08:01:37.241Z,96.51
2023-01-09T08:04:04.812Z,97.47
2023-01-09T08:06:32.292Z,98.73
2023-01-09T08:08:59.560Z,100.00
2023-01-09T08:11:26.702Z,100.00
2023-01-09T08:13:53.865Z,100.00
2023-01-09T08:16:21.418Z,100.00
2023-01-09T08:18:50.178Z,100.00
2023-01-09T08:21:17.421Z,99.49
2023-01-09T08:23:44.814Z,99.75
2023-01-09T08:26:11.640Z,100.00
2023-01-09T08:28:39.010Z,99.83
2023-01-09T08:31:06.758Z,98.32
2023-01-09T08:33:34.351Z,98.16
2023-01-09T08:36:02.527Z,97.09
2023-01-09T08:38:30.121Z,98.64
2023-01-09T08:40:56.894Z,98.47
2023-01-09T08:43:24.050Z,98.73
2023-01-09T08:45:51.048Z,99.04
2023-01-09T08:48:18.326Z,99.36
2023-01-09T08:50:45.620Z,99.97
2023-01-09T08:53:14.719Z,100.00
2023-01-09T08:55:42.230Z,100.00
2023-01-09T08:58:09.104Z,100.00
2023-01-09T09:00:36.240Z,100.00
2023-01-09T09:03:04.222Z,100.00
2023-01-09T09:05:32.898Z,100.00
2023-01-09T09:08:00.548Z,99.48
2023-01-09T09:10:30.310Z,100.00
2023-01-09T09:12:58.532Z,100.00
2023-01-09T09:15:27.232Z,100.00
2023-01-09T09:17:55.985Z,100.00
2023-01-09T09:20:24.715Z,100.00
2023-01-09T09:22:52.254Z,100.00
2023-01-09T09:25:20.784Z,99.93
2023-01-09T09:27:49.378Z,98.55
2023-01-09T09:30:18.044Z,96.90
2023-01-09T09:32:45.427Z,99.21
2023-01-09T09:35:12.781Z,100.00
2023-01-09T09:37:40.300Z,100.00
2023-01-09T09:40:18.667Z,98.76
2023-01-09T09:43:04.312Z,100.00
2023-01-09T09:45:44.786Z,100.00
2023-01-09T09:48:26.564Z,100.00
2023-01-09T09:51:16.087Z,100.00
2023-01-09T09:53:48.648Z,99.71
2023-01-09T09:56:19.029Z,99.96
2023-01-09T09:58:52.213Z,98.22
2023-01-09T10:01:24.831Z,96.22
2023-01-09T10:03:55.700Z,95.42
2023-01-09T10:06:28.456Z,95.97
2023-01-09T10:09:02.985Z,93.38
2023-01-09T10:11:37.508Z,91.62
2023-01-09T10:14:15.973Z,93.31
2023-01-09T10:17:11.249Z,96.19
2023-01-09T10:19:52.551Z,97.67
2023-01-09T10:22:29.517Z,92.65
2023-01-09T10:25:11.368Z,91.06
2023-01-09T10:27:56.350Z,87.38
2023-01-09T10:30:41.153Z,87.12
2023-01-09T10:33:26.640Z,88.91
2023-01-09T10:36:24.430Z,89.17
2023-01-09T10:38:55.570Z,87.00
2023-01-09T10:41:29.276Z,84.60
2023-01-09T10:44:02.767Z,86.97
2023-01-09T10:46:37.505Z,91.86
2023-01-09T10:49:13.088Z,90.33
2023-01-09T10:51:47.264Z,92.05
2023-01-09T10:54:16.385Z,91.87
2023-01-09T10:56:51.244Z,93.85
2023-01-09T10:59:18.521Z,92.85
2023-01-09T11:01:47.195Z,90.46
2023-01-09T11:04:24.052Z,89.20
2023-01-09T11:06:56.181Z,93.75
2023-01-09T11:09:23.540Z,95.20
2023-01-09T11:11:52.692Z,92.11
2023-01-09T11:14:25.739Z,93.94
2023-01-09T11:16:56.115Z,93.52
2023-01-09T11:19:24.900Z,90.70
2023-01-09T11:22:07.509Z,90.04
2023-01-09T11:24:35.197Z,91.71
2023-01-09T11:27:19.129Z,90.81
2023-01-09T11:30:03.530Z,88.81
2023-01-09T11:32:33.432Z,88.56
2023-01-09T11:35:00.959Z,89.69
2023-01-09T11:37:30.616Z,89.78
2023-01-09T11:40:00.153Z,89.69
2023-01-09T11:42:29.279Z,86.48
2023-01-09T11:44:59.127Z,86.19
2023-01-09T11:47:40.950Z,83.07
2023-01-09T11:50:18.351Z,79.01
2023-01-09T11:52:45.998Z,80.76
2023-01-09T11:55:19.242Z,88.02
2023-01-09T11:57:46.543Z,89.02
2023-01-09T12:00:26.200Z,84.10
2023-01-09T12:03:12.607Z,84.03
2023-01-09T12:05:50.160Z,84.57
2023-01-09T12:08:31.351Z,88.52
2023-01-09T12:11:11.098Z,88.63
2023-01-09T12:14:04.019Z,86.67
2023-01-09T12:16:37.642Z,85.65
2023-01-09T12:19:24.122Z,83.52
2023-01-09T12:22:02.565Z,81.66
2023-01-09T12:24:56.358Z,86.14
2023-01-09T12:27:36.877Z,82.99
2023-01-09T12:30:20.915Z,85.37
2023-01-09T12:33:00.562Z,84.27
2023-01-09T12:35:39.772Z,82.19
2023-01-09T12:38:37.813Z,75.86
2023-01-09T12:41:25.392Z,73.07
2023-01-09T12:44:09.207Z,70.81
2023-01-09T12:46:48.169Z,72.70
2023-01-09T12:49:28.406Z,71.50
2023-01-09T12:52:04.470Z,69.23
2023-01-09T12:54:38.471Z,72.77
2023-01-09T12:57:13.225Z,71.49
2023-01-09T12:59:45.330Z,71.15
2023-01-09T13:02:21.734Z,70.64
2023-01-09T13:04:54.977Z,70.24
2023-01-09T13:07:26.914Z,68.48
2023-01-09T13:09:59.858Z,67.81
2023-01-09T13:12:33.487Z,67.77
2023-01-09T13:15:06.327Z,68.53
2023-01-09T13:17:40.688Z,69.52
2023-01-09T13:20:19.873Z,67.79
2023-01-09T13:22:49.478Z,67.32
2023-01-09T13:25:31.847Z,66.08
2023-01-09T13:28:04.962Z,67.14
2023-01-09T13:30:56.877Z,65.51
2023-01-09T13:33:28.750Z,67.81
2023-01-09T13:35:57.319Z,68.96
2023-01-09T13:38:28.681Z,68.70
2023-01-09T13:41:11.033Z,67.32
2023-01-09T13:43:54.823Z,66.81
2023-01-09T13:46:21.775Z,65.02
2023-01-09T13:48:49.055Z,64.96
2023-01-09T13:51:52.176Z,66.44
2023-01-09T13:57:26.828Z,66.83
2023-01-09T13:59:55.231Z,65.35
2023-01-09T14:03:04.645Z,71.36
2023-01-09T14:06:04.194Z,71.72
2023-01-09T14:08:33.889Z,68.93
2023-01-09T14:11:03.241Z,65.59
2023-01-09T14:13:38.974Z,66.99
2023-01-09T14:16:08.860Z,66.93
2023-01-09T14:18:42.142Z,64.54
2023-01-09T14:21:12.232Z,64.31
2023-01-09T14:23:52.889Z,63.52
2023-01-09T14:26:23.129Z,64.26
2023-01-09T14:28:52.105Z,64.18
2023-01-09T14:31:30.990Z,64.07
2023-01-09T14:34:32.042Z,63.94
2023-01-09T14:37:02.720Z,64.46
2023-01-09T14:39:32.383Z,65.06
2023-01-09T14:42:03.903Z,67.08
2023-01-09T14:44:41.438Z,68.83
2023-01-09T14:47:17.679Z,68.12
2023-01-09T14:49:50.421Z,66.24
2023-01-09T14:52:23.010Z,65.61
2023-01-09T14:54:52.161Z,65.07
2023-01-09T14:57:27.069Z,64.45
2023-01-09T15:00:00.950Z,64.17
2023-01-09T15:02:31.495Z,62.54
2023-01-09T15:05:02.275Z,64.52
2023-01-09T15:07:29.890Z,63.36
2023-01-09T15:10:01.748Z,63.86
2023-01-09T15:12:29.684Z,64.42
2023-01-09T15:15:01.641Z,66.58
2023-01-09T15:17:31.778Z,67.34
2023-01-09T15:20:01.654Z,64.50
2023-01-09T15:22:30.325Z,64.88
2023-01-09T15:24:58.071Z,63.94
2023-01-09T15:27:26.254Z,65.73
2023-01-09T15:29:53.733Z,64.85
2023-01-09T15:32:28.514Z,62.96
2023-01-09T15:34:57.342Z,62.78
2023-01-09T15:37:29.320Z,63.17
2023-01-09T15:39:58.288Z,64.84
2023-01-09T15:42:28.907Z,64.41
2023-01-09T15:44:56.554Z,62.75
2023-01-09T15:47:25.519Z,62.18
2023-01-09T15:49:53.372Z,62.43
2023-01-09T15:52:22.438Z,62.62
2023-01-09T15:54:49.756Z,62.67
2023-01-09T15:57:31.822Z,61.88
2023-01-09T16:00:42.171Z,61.76
2023-01-09T16:03:19.681Z,60.36
2023-01-09T16:05:50.122Z,60.04
2023-01-09T16:08:25.633Z,59.05
2023-01-09T16:10:55.151Z,59.65
2023-01-09T16:13:24.359Z,61.81
2023-01-09T16:15:52.291Z,67.87
2023-01-09T16:18:27.869Z,69.29
2023-01-09T16:21:07.247Z,73.95
2023-01-09T16:23:35.953Z,73.83
2023-01-09T16:26:05.792Z,74.74
2023-01-09T16:28:33.290Z,77.71
2023-01-09T16:31:03.099Z,79.75
2023-01-09T16:33:32.505Z,80.15
2023-01-09T16:35:59.924Z,83.74
2023-01-09T16:38:27.593Z,84.82
2023-01-09T16:41:06.343Z,84.92
2023-01-09T16:43:33.591Z,84.66
2023-01-09T16:46:01.997Z,84.30
2023-01-09T16:48:29.670Z,84.88
2023-01-09T16:50:58.348Z,83.71
2023-01-09T16:53:25.603Z,82.46
2023-01-09T16:55:54.399Z,83.17
2023-01-09T16:58:25.935Z,82.43
2023-01-09T17:00:52.844Z,82.05
2023-01-09T17:03:21.353Z,81.52
2023-01-09T17:05:50.534Z,83.52
2023-01-09T17:08:22.992Z,83.42
2023-01-09T17:10:50.631Z,82.34
2023-01-09T17:13:18.188Z,79.84
2023-01-09T17:15:46.526Z,79.02
2023-01-09T17:18:17.039Z,77.62
2023-01-09T17:20:48.639Z,75.67
2023-01-09T17:23:15.837Z,74.08
2023-01-09T17:25:44.709Z,73.66
2023-01-09T17:28:19.843Z,73.60
2023-01-09T17:30:47.215Z,74.06
2023-01-09T17:33:16.213Z,74.17
2023-01-09T17:35:43.996Z,73.48
2023-01-09T17:38:13.471Z,72.05
2023-01-09T17:40:41.483Z,71.08
2023-01-09T17:43:10.041Z,71.36
2023-01-09T17:45:38.129Z,71.79
2023-01-09T17:48:06.014Z,72.80
2023-01-09T17:50:33.082Z,72.19
2023-01-09T17:53:00.509Z,75.52
2023-01-09T17:55:27.741Z,76.12
2023-01-09T17:57:54.518Z,75.57
2023-01-09T18:00:27.287Z,75.43
2023-01-09T18:02:55.077Z,73.35
2023-01-09T18:05:23.239Z,73.96
2023-01-09T18:07:51.423Z,74.03
2023-01-09T18:10:20.874Z,75.57
2023-01-09T18:12:47.991Z,77.02
2023-01-09T18:15:15.918Z,76.36
2023-01-09T18:17:44.708Z,76.32
2023-01-09T18:20:12.867Z,75.56
2023-01-09T18:22:40.044Z,76.13
2023-01-09T18:25:08.165Z,81.69
2023-01-09T18:27:36.499Z,77.65
2023-01-09T18:30:05.568Z,75.76
2023-01-09T18:32:33.160Z,76.03
2023-01-09T18:35:02.057Z,76.18
2023-01-09T18:37:29.359Z,77.66
2023-01-09T18:39:56.826Z,78.00
2023-01-09T18:42:24.057Z,78.25
2023-01-09T18:44:51.384Z,77.42
2023-01-09T18:47:18.915Z,77.91
2023-01-09T18:49:46.183Z,80.20
2023-01-09T18:52:14.977Z,80.68
2023-01-09T18:54:42.247Z,81.06
2023-01-09T18:57:10.275Z,81.96
2023-01-09T18:59:37.366Z,81.93
2023-01-09T19:02:05.317Z,84.11
2023-01-09T19:04:32.648Z,84.37
2023-01-09T19:06:59.936Z,82.30
2023-01-09T19:09:28.757Z,82.59
2023-01-09T19:11:56.340Z,83.64
2023-01-09T19:14:23.567Z,83.27
2023-01-09T19:16:50.627Z,82.44
2023-01-09T19:19:17.474Z,81.86
2023-01-09T19:21:44.789Z,83.89
2023-01-09T19:44:51.031Z,100.00
2023-01-09T19:47:17.660Z,100.00
2023-01-09T19:49:47.319Z,100.00
2023-01-09T19:52:13.986Z,100.00
2023-01-09T19:54:40.680Z,100.00
2023-01-09T19:57:07.348Z,100.00
2023-01-09T19:59:35.958Z,100.00
2023-01-09T20:02:04.181Z,100.00
2023-01-09T20:04:30.928Z,100.00
2023-01-09T20:06:57.596Z,100.00
2023-01-09T20:09:24.310Z,100.00
2023-01-09T20:11:50.955Z,100.00
2023-01-09T20:14:19.061Z,100.00
2023-01-09T20:16:46.664Z,100.00
2023-01-09T20:19:17.312Z,100.00
2023-01-09T20:21:44.447Z,100.00
2023-01-09T20:24:14.442Z,100.00
2023-01-09T20:26:44.039Z,97.38
2023-01-09T20:29:10.675Z,96.58
2023-01-09T20:31:37.522Z,97.23
2023-01-09T20:34:04.758Z,97.84
2023-01-09T20:36:32.925Z,98.41
2023-01-09T20:39:01.675Z,97.68
2023-01-09T20:41:28.887Z,97.63
2023-01-09T20:43:57.905Z,100.00
2023-01-09T20:46:26.158Z,100.00
2023-01-09T20:48:55.892Z,100.00
2023-01-09T20:51:22.791Z,100.00
2023-01-09T20:53:51.415Z,99.44
2023-01-09T20:56:18.124Z,100.00
2023-01-09T20:58:44.745Z,100.00
2023-01-09T21:01:13.540Z,100.00
2023-01-09T21:03:40.309Z,100.00
2023-01-09T21:06:09.164Z,100.00
2023-01-09T21:08:39.194Z,100.00
2023-01-09T21:11:07.441Z,100.00
2023-01-09T21:13:34.385Z,100.00
2023-01-09T21:16:01.278Z,100.00
2023-01-09T21:18:28.293Z,100.00
2023-01-09T21:20:54.966Z,100.00
2023-01-09T21:23:22.109Z,99.56
2023-01-09T21:25:48.834Z,100.00
2023-01-09T21:28:17.075Z,98.36
2023-01-09T21:30:43.727Z,97.51
2023-01-09T21:33:10.827Z,97.24
2023-01-09T21:35:37.657Z,97.07
2023-01-09T21:38:04.368Z,97.44
2023-01-09T21:40:31.076Z,94.35
2023-01-09T21:42:57.750Z,93.08
2023-01-09T21:45:25.838Z,92.08
2023-01-09T21:47:52.486Z,94.05
2023-01-09T21:50:19.253Z,95.00
2023-01-09T21:52:45.895Z,94.13
2023-01-09T21:55:15.430Z,95.76
2023-01-09T21:57:42.136Z,96.37
2023-01-09T22:00:09.901Z,94.92
2023-01-09T22:02:37.906Z,97.35
2023-01-09T22:05:06.926Z,97.80
2023-01-09T22:07:33.552Z,97.44
2023-01-09T22:10:00.248Z,98.14
2023-01-09T22:12:26.962Z,98.56
2023-01-09T22:14:53.884Z,98.16
2023-01-09T22:17:20.476Z,99.87
2023-01-09T22:19:48.550Z,98.18
2023-01-09T22:22:15.196Z,97.47
2023-01-09T22:24:41.929Z,96.66
2023-01-09T22:27:08.677Z,94.98
2023-01-09T22:29:35.383Z,93.93
2023-01-09T22:32:02.107Z,93.52
2023-01-09T22:34:29.043Z,94.50
2023-01-09T22:36:57.039Z,95.92
2023-01-09T22:39:23.636Z,96.25
2023-01-09T22:41:51.316Z,94.81
2023-01-09T22:44:18.183Z,92.68
2023-01-09T22:46:44.941Z,92.38
2023-01-09T22:49:11.580Z,92.11
2023-01-09T22:51:38.394Z,92.84
2023-01-09T22:54:06.652Z,94.76
2023-01-09T22:56:33.306Z,95.26
2023-01-09T22:58:59.937Z,94.69
2023-01-09T23:01:26.844Z,96.35
2023-01-09T23:03:53.512Z,96.94
2023-01-09T23:06:21.542Z,95.62
2023-01-09T23:08:48.859Z,94.10
2023-01-09T23:11:20.846Z,93.56
2023-01-09T23:13:47.441Z,93.61
2023-01-09T23:16:14.127Z,92.70
2023-01-09T23:18:40.809Z,91.95
2023-01-09T23:21:07.777Z,91.69
2023-01-09T23:23:34.425Z,91.86
2023-01-09T23:26:03.773Z,91.55
2023-01-09T23:28:31.824Z,91.36
2023-01-09T23:30:58.521Z,91.48
2023-01-09T23:33:25.231Z,91.69
2023-01-09T23:35:51.910Z,91.34
2023-01-09T23:38:18.666Z,90.92
2023-01-09T23:40:45.364Z,91.01
2023-01-09T23:43:13.195Z,90.67
2023-01-09T23:45:42.760Z,90.47
2023-01-09T23:48:12.087Z,90.66
2023-01-09T23:50:39.152Z,91.30
2023-01-09T23:53:05.828Z,91.37
2023-01-09T23:55:32.538Z,91.98
2023-01-09T23:57:59.208Z,92.73
